createdAt,value
2019-04-05T00:01:40.868Z,54.60
2019-04-05T00:04:12.347Z,54.77
2019-04-05T00:06:43.731Z,51.25
2019-04-05T00:09:15.021Z,52.75
2019-04-05T00:11:46.328Z,54.03
2019-04-05T00:14:31.560Z,54.48
2019-04-05T00:17:02.903Z,55.90
2019-04-05T00:19:41.114Z,55.15
2019-04-05T00:22:13.385Z,57.03
2019-04-05T00:24:44.940Z,58.70
2019-04-05T00:27:17.390Z,57.45
2019-04-05T00:29:48.804Z,57.03
2019-04-05T00:32:20.298Z,56.23
2019-04-05T00:34:51.591Z,58.48
2019-04-05T00:37:24.177Z,57.48
2019-04-05T00:39:56.995Z,59.73
2019-04-05T00:42:28.241Z,57.85
2019-04-05T00:44:59.461Z,61.23
2019-04-05T00:47:30.554Z,57.93
2019-04-05T00:50:01.671Z,56.98
2019-04-05T00:52:33.020Z,57.38
2019-04-05T00:55:06.183Z,58.42
2019-04-05T00:57:38.397Z,56.45
2019-04-05T01:00:09.575Z,54.83
2019-04-05T01:02:40.667Z,54.67
2019-04-05T01:05:11.937Z,53.23
2019-04-05T01:07:43.249Z,55.10
2019-04-05T01:10:14.977Z,55.78
2019-04-05T01:12:49.101Z,55.90
2019-04-05T01:15:20.497Z,55.95
2019-04-05T01:17:53.775Z,56.92
2019-04-05T01:20:25.698Z,54.77
2019-04-05T01:22:58.053Z,56.65
2019-04-05T01:25:29.416Z,55.67
2019-04-05T01:28:01.593Z,59.18
2019-04-05T01:30:32.811Z,57.00
2019-04-05T01:33:04.341Z,56.60
2019-04-05T01:35:35.898Z,57.08
2019-04-05T01:38:07.458Z,58.48
2019-04-05T01:40:38.958Z,57.38
2019-04-05T01:43:10.345Z,57.93
2019-04-05T01:45:53.136Z,59.23
2019-04-05T01:48:15.212Z,60.45
2019-04-05T01:50:46.424Z,61.45
2019-04-05T01:53:18.287Z,61.77
2019-04-05T01:55:49.689Z,59.15
2019-04-05T01:58:23.002Z,60.35
2019-04-05T02:00:56.095Z,58.90
2019-04-05T02:03:27.494Z,59.30
2019-04-05T02:05:59.122Z,57.43
2019-04-05T02:08:30.598Z,57.05
2019-04-05T02:11:02.028Z,56.25
2019-04-05T02:13:33.479Z,56.63
2019-04-05T02:16:06.459Z,54.23
2019-04-05T02:18:38.604Z,57.50
2019-04-05T02:21:10.101Z,56.30
2019-04-05T02:23:41.519Z,57.00
2019-04-05T02:26:12.711Z,57.30
2019-04-05T02:28:46.589Z,58.65
2019-04-05T02:31:17.939Z,55.23
2019-04-05T02:33:50.170Z,52.05
2019-04-05T02:36:21.621Z,48.42
2019-04-05T02:38:53.091Z,47.25
2019-04-05T02:41:24.563Z,47.78
2019-04-05T02:43:55.599Z,43.30
2019-04-05T02:46:26.977Z,43.33
2019-04-05T02:48:58.301Z,44.90
2019-04-05T02:51:29.304Z,45.05
2019-04-05T02:54:00.704Z,44.18
2019-04-05T02:56:31.938Z,45.10
2019-04-05T02:59:04.313Z,44.58
2019-04-05T03:01:35.916Z,45.67
2019-04-05T03:04:07.547Z,44.45
2019-04-05T03:06:38.897Z,45.28
2019-04-05T03:09:13.987Z,46.42
2019-04-05T03:11:45.252Z,44.83
2019-04-05T03:14:16.730Z,44.30
2019-04-05T03:16:51.285Z,44.73
2019-04-05T03:19:26.085Z,43.13
2019-04-05T03:22:00.336Z,42.08
2019-04-05T03:24:31.681Z,41.02
2019-04-05T03:27:05.286Z,40.60
2019-04-05T03:29:36.871Z,40.80
2019-04-05T03:32:09.087Z,41.88
2019-04-05T03:34:40.301Z,41.05
2019-04-05T03:37:11.601Z,40.00
2019-04-05T03:39:42.916Z,41.28
2019-04-05T03:42:16.784Z,40.45
2019-04-05T03:44:48.134Z,40.80
2019-04-05T03:47:21.425Z,41.55
2019-04-05T03:49:52.786Z,41.58
2019-04-05T03:52:23.967Z,42.48
2019-04-05T03:54:55.164Z,46.05
2019-04-05T03:57:27.559Z,58.08
2019-04-05T03:59:58.688Z,64.35
2019-04-05T04:02:29.955Z,64.80
2019-04-05T04:05:01.147Z,63.68
2019-04-05T04:07:32.393Z,63.00
2019-04-05T04:10:03.449Z,62.20
2019-04-05T04:12:34.626Z,59.08
2019-04-05T04:15:14.125Z,62.67
2019-04-05T04:17:46.015Z,59.20
2019-04-05T04:20:38.302Z,57.62
2019-04-05T04:23:09.657Z,57.62
2019-04-05T04:25:41.634Z,57.10
2019-04-05T04:28:12.824Z,55.35
2019-04-05T04:30:44.056Z,56.92
2019-04-05T04:33:15.431Z,57.38
2019-04-05T04:35:46.651Z,55.78
2019-04-05T04:38:17.918Z,56.20
2019-04-05T04:40:49.234Z,54.83
2019-04-05T04:43:20.443Z,52.80
2019-04-05T04:45:51.735Z,55.05
2019-04-05T04:48:23.990Z,52.88
2019-04-05T04:50:55.127Z,51.60
2019-04-05T04:53:27.992Z,53.48
2019-04-05T04:55:59.192Z,54.03
2019-04-05T04:58:32.936Z,53.10
2019-04-05T05:01:05.990Z,53.55
2019-04-05T05:03:37.108Z,55.60
2019-04-05T05:06:08.397Z,52.90
2019-04-05T05:08:40.585Z,53.42
2019-04-05T05:11:14.904Z,52.67
2019-04-05T05:13:44.890Z,52.10
2019-04-05T05:16:16.071Z,51.28
2019-04-05T05:18:49.041Z,52.33
2019-04-05T05:21:20.542Z,52.70
2019-04-05T05:23:51.839Z,52.15
2019-04-05T05:26:23.237Z,53.35
2019-04-05T05:28:55.636Z,54.03
2019-04-05T05:31:26.734Z,54.67
2019-04-05T05:33:58.943Z,54.10
2019-04-05T05:36:30.181Z,53.10
2019-04-05T05:39:01.410Z,53.55
2019-04-05T05:41:33.928Z,52.88
2019-04-05T05:44:05.378Z,49.95
2019-04-05T05:46:36.634Z,55.38
2019-04-05T05:49:07.871Z,57.60
2019-04-05T05:51:39.078Z,56.73
2019-04-05T05:54:10.347Z,56.13
2019-04-05T05:56:42.030Z,56.65
2019-04-05T05:59:13.352Z,57.27
2019-04-05T06:01:44.604Z,58.83
2019-04-05T06:04:16.289Z,55.73
2019-04-05T06:06:47.518Z,56.00
2019-04-05T06:09:22.518Z,55.12
2019-04-05T06:11:53.720Z,49.48
2019-04-05T06:14:24.981Z,51.83
2019-04-05T06:16:56.107Z,46.85
2019-04-05T06:19:28.255Z,49.73
2019-04-05T06:21:59.336Z,48.15
2019-04-05T06:24:30.356Z,46.83
2019-04-05T06:27:01.521Z,47.48
2019-04-05T06:29:32.688Z,45.48
2019-04-05T06:32:06.038Z,43.58
2019-04-05T06:34:37.717Z,43.73
2019-04-05T06:37:09.066Z,43.95
2019-04-05T06:39:44.122Z,39.08
2019-04-05T06:42:15.423Z,37.53
2019-04-05T06:44:46.733Z,34.63
2019-04-05T06:47:17.853Z,32.58
2019-04-05T06:49:49.212Z,35.48
2019-04-05T06:52:20.376Z,37.58
2019-04-05T06:54:51.985Z,36.25
2019-04-05T06:57:23.152Z,38.53
2019-04-05T07:00:01.497Z,40.12
2019-04-05T07:02:33.336Z,71.42
2019-04-05T07:05:07.499Z,41.45
2019-04-05T07:07:41.444Z,42.08
2019-04-05T07:10:13.905Z,54.90
2019-04-05T07:12:45.058Z,42.20
2019-04-05T07:15:17.086Z,41.10
2019-04-05T07:17:48.110Z,41.18
2019-04-05T07:20:19.229Z,44.85
2019-04-05T07:22:50.271Z,39.33
2019-04-05T07:25:21.378Z,40.12
2019-04-05T07:27:53.721Z,39.70
2019-04-05T07:30:24.835Z,39.83
2019-04-05T07:32:56.110Z,36.48
2019-04-05T07:35:33.264Z,40.20
2019-04-05T07:38:00.362Z,34.30
2019-04-05T07:40:32.165Z,31.95
2019-04-05T07:43:06.380Z,22.10
2019-04-05T07:45:37.577Z,22.45
2019-04-05T07:48:08.894Z,25.35
2019-04-05T07:50:40.093Z,25.55
2019-04-05T07:53:17.985Z,22.07
2019-04-05T07:55:53.319Z,18.30
2019-04-05T07:58:26.655Z,18.27
2019-04-05T08:01:02.219Z,17.90
2019-04-05T08:03:36.090Z,19.30
2019-04-05T08:06:09.559Z,17.30
2019-04-05T08:08:46.895Z,16.15
2019-04-05T08:11:19.008Z,15.08
2019-04-05T08:13:50.302Z,11.93
2019-04-05T08:16:21.667Z,16.73
2019-04-05T08:18:58.169Z,20.20
2019-04-05T08:21:29.368Z,18.25
2019-04-05T08:24:00.539Z,18.65
2019-04-05T08:26:32.030Z,19.05
2019-04-05T08:29:03.199Z,20.30
2019-04-05T08:31:36.189Z,20.92
2019-04-05T08:34:07.477Z,19.90
2019-04-05T08:36:38.845Z,18.70
2019-04-05T08:39:10.052Z,17.95
2019-04-05T08:41:42.263Z,11.93
2019-04-05T08:44:13.506Z,9.30
2019-04-05T08:46:44.747Z,11.30
2019-04-05T08:49:16.092Z,11.35
2019-04-05T08:51:47.279Z,12.33
2019-04-05T08:54:31.574Z,16.70
2019-04-05T08:56:53.142Z,17.82
2019-04-05T08:59:27.201Z,15.40
2019-04-05T09:01:58.320Z,15.13
2019-04-05T09:04:29.516Z,15.50
2019-04-05T09:07:02.364Z,16.42
2019-04-05T09:09:34.650Z,16.60
2019-04-05T09:12:05.731Z,16.30
2019-04-05T09:14:39.728Z,15.58
2019-04-05T09:17:15.306Z,16.85
2019-04-05T09:19:49.164Z,17.95
2019-04-05T09:22:21.483Z,16.97
2019-04-05T09:24:54.326Z,16.73
2019-04-05T09:27:26.488Z,17.50
2019-04-05T09:29:57.775Z,17.23
2019-04-05T09:32:28.987Z,16.90
2019-04-05T09:35:00.309Z,16.48
2019-04-05T09:37:33.026Z,21.02
2019-04-05T09:40:08.076Z,15.38
2019-04-05T09:42:41.800Z,15.53
2019-04-05T09:45:12.974Z,14.93
2019-04-05T09:47:46.133Z,15.25
2019-04-05T09:50:17.749Z,13.25
2019-04-05T09:52:50.002Z,12.50
2019-04-05T09:55:21.397Z,12.60
2019-04-05T09:57:52.626Z,12.90
2019-04-05T10:00:25.452Z,12.15
2019-04-05T10:02:59.979Z,11.95
2019-04-05T10:05:31.115Z,12.03
2019-04-05T10:08:02.302Z,12.33
2019-04-05T10:10:33.394Z,12.63
2019-04-05T10:13:09.754Z,13.05
2019-04-05T10:15:42.194Z,13.10
2019-04-05T10:18:13.392Z,13.68
2019-04-05T10:20:45.669Z,15.15
2019-04-05T10:23:16.868Z,13.20
2019-04-05T10:25:48.012Z,13.93
2019-04-05T10:28:19.122Z,14.03
2019-04-05T10:30:51.891Z,14.15
2019-04-05T10:33:24.255Z,14.07
2019-04-05T10:35:55.490Z,13.93
2019-04-05T10:38:27.650Z,13.55
2019-04-05T10:40:58.757Z,13.62
2019-04-05T10:43:30.145Z,12.60
2019-04-05T10:46:01.353Z,13.70
2019-04-05T10:48:35.232Z,12.80
2019-04-05T10:51:05.293Z,13.20
2019-04-05T10:53:36.806Z,12.37
2019-04-05T10:56:08.219Z,13.08
2019-04-05T10:58:39.502Z,24.10
2019-04-05T11:01:13.632Z,14.40
2019-04-05T11:03:44.936Z,14.07
2019-04-05T11:06:16.051Z,13.50
2019-04-05T11:08:47.437Z,12.65
2019-04-05T11:11:18.791Z,11.88
2019-04-05T11:13:50.046Z,12.50
2019-04-05T11:16:21.442Z,12.30
2019-04-05T11:18:53.514Z,13.62
2019-04-05T11:21:25.610Z,13.65
2019-04-05T11:24:02.930Z,13.65
2019-04-05T11:26:35.981Z,12.98
2019-04-05T11:29:07.645Z,13.40
2019-04-05T11:31:41.361Z,13.70
2019-04-05T11:34:14.019Z,13.15
2019-04-05T11:36:48.773Z,13.83
2019-04-05T11:39:20.405Z,12.90
2019-04-05T11:41:53.444Z,13.55
2019-04-05T11:44:24.784Z,13.55
2019-04-05T11:46:57.595Z,12.43
2019-04-05T11:49:28.864Z,10.95
2019-04-05T11:52:01.613Z,12.05
2019-04-05T11:54:32.748Z,11.53
2019-04-05T11:57:04.002Z,12.65
2019-04-05T11:59:35.092Z,11.93
2019-04-05T12:02:24.171Z,12.07
2019-04-05T12:04:57.047Z,11.45
2019-04-05T12:07:28.270Z,12.85
2019-04-05T12:10:01.434Z,11.57
2019-04-05T12:12:32.491Z,12.28
2019-04-05T12:15:06.982Z,12.85
2019-04-05T12:17:38.231Z,13.15
2019-04-05T12:20:09.271Z,12.70
2019-04-05T12:22:45.133Z,11.93
2019-04-05T12:25:16.214Z,12.43
2019-04-05T12:27:48.852Z,13.28
2019-04-05T12:30:24.365Z,13.68
2019-04-05T12:32:55.487Z,12.65
2019-04-05T12:35:27.091Z,12.07
2019-04-05T12:37:58.245Z,11.83
2019-04-05T12:40:29.911Z,12.65
2019-04-05T12:43:03.945Z,11.78
2019-04-05T12:45:35.271Z,13.28
2019-04-05T12:48:06.363Z,12.30
2019-04-05T12:50:37.565Z,13.43
2019-04-05T12:53:08.764Z,14.20
2019-04-05T12:55:40.052Z,14.00
2019-04-05T12:58:12.819Z,13.90
2019-04-05T13:00:44.054Z,16.30
2019-04-05T13:03:15.221Z,14.98
2019-04-05T13:05:46.365Z,14.25
2019-04-05T13:08:17.514Z,14.93
2019-04-05T13:10:48.913Z,15.32
2019-04-05T13:13:20.069Z,15.72
2019-04-05T13:15:51.102Z,15.90
2019-04-05T13:18:25.007Z,15.58
2019-04-05T13:20:55.154Z,15.88
2019-04-05T13:23:26.204Z,15.63
2019-04-05T13:25:57.238Z,16.60
2019-04-05T13:28:28.416Z,15.58
2019-04-05T13:30:59.522Z,15.45
2019-04-05T13:33:30.676Z,14.87
2019-04-05T13:36:02.416Z,15.08
2019-04-05T13:38:33.541Z,14.63
2019-04-05T13:41:04.740Z,14.20
2019-04-05T13:43:50.289Z,13.85
2019-04-05T13:46:26.079Z,14.07
2019-04-05T13:48:56.649Z,13.88
2019-04-05T13:51:31.694Z,14.60
2019-04-05T13:54:01.969Z,14.13
2019-04-05T13:56:33.305Z,14.60
2019-04-05T13:59:04.547Z,13.50
2019-04-05T14:01:35.759Z,14.53
2019-04-05T14:04:07.003Z,14.28
2019-04-05T14:06:38.202Z,14.40
2019-04-05T14:09:10.461Z,75.15
2019-04-05T14:11:42.056Z,14.35
2019-04-05T14:14:14.788Z,14.95
2019-04-05T14:16:46.227Z,15.43
2019-04-05T14:19:20.387Z,16.48
2019-04-05T14:21:53.494Z,15.93
2019-04-05T14:24:26.549Z,34.18
2019-04-05T14:26:57.729Z,17.73
2019-04-05T14:29:28.820Z,17.67
2019-04-05T14:32:19.191Z,18.15
2019-04-05T14:34:33.396Z,17.52
2019-04-05T14:37:04.729Z,18.87
2019-04-05T14:39:35.890Z,19.40
2019-04-05T14:42:10.174Z,19.30
2019-04-05T14:44:47.284Z,20.27
2019-04-05T14:47:19.946Z,20.85
2019-04-05T14:49:51.273Z,20.52
2019-04-05T14:52:25.369Z,19.80
2019-04-05T14:54:55.224Z,20.68
2019-04-05T14:57:26.370Z,70.55
2019-04-05T14:59:57.649Z,20.32
2019-04-05T15:02:29.093Z,21.15
2019-04-05T15:05:00.340Z,20.40
2019-04-05T15:07:31.600Z,21.45
2019-04-05T15:10:03.887Z,21.07
2019-04-05T15:12:35.219Z,20.35
2019-04-05T15:15:07.664Z,21.33
2019-04-05T15:17:47.898Z,20.75
2019-04-05T15:20:11.736Z,18.98
2019-04-05T15:22:43.832Z,18.67
2019-04-05T15:25:17.852Z,18.67
2019-04-05T15:27:51.261Z,18.75
2019-04-05T15:30:25.505Z,17.70
2019-04-05T15:32:58.455Z,17.00
2019-04-05T15:35:28.806Z,17.30
2019-04-05T15:38:02.856Z,18.45
2019-04-05T15:40:34.014Z,18.20
2019-04-05T15:43:05.172Z,18.17
2019-04-05T15:45:37.275Z,18.20
2019-04-05T15:48:08.349Z,17.80
2019-04-05T15:50:39.527Z,18.70
2019-04-05T15:53:11.111Z,18.27
2019-04-05T15:55:42.329Z,18.07
2019-04-05T15:58:13.543Z,18.67
2019-04-05T16:00:46.895Z,20.57
2019-04-05T16:03:18.040Z,18.85
2019-04-05T16:05:49.452Z,19.25
2019-04-05T16:08:22.194Z,18.85
2019-04-05T16:10:53.865Z,19.82
2019-04-05T16:13:24.965Z,19.82
2019-04-05T16:15:56.128Z,19.80
2019-04-05T16:18:28.796Z,20.27
2019-04-05T16:20:59.898Z,18.05
2019-04-05T16:23:31.403Z,17.20
2019-04-05T16:26:02.544Z,17.12
2019-04-05T16:28:33.745Z,17.10
2019-04-05T16:31:04.911Z,17.60
2019-04-05T16:33:36.099Z,16.60
2019-04-05T16:36:07.234Z,17.35
2019-04-05T16:38:38.265Z,17.75
2019-04-05T16:41:09.502Z,21.87
2019-04-05T16:43:40.711Z,37.80
2019-04-05T16:46:11.898Z,24.47
2019-04-05T16:48:43.060Z,18.45
2019-04-05T16:51:14.406Z,18.92
2019-04-05T16:54:01.766Z,17.73
2019-04-05T16:56:32.903Z,18.42
2019-04-05T16:59:04.357Z,18.82
2019-04-05T17:01:36.494Z,18.02
2019-04-05T17:04:07.736Z,18.23
2019-04-05T17:06:38.786Z,18.87
2019-04-05T17:09:10.973Z,19.35
2019-04-05T17:11:42.093Z,18.30
2019-04-05T17:14:13.236Z,17.85
2019-04-05T17:16:44.397Z,18.25
2019-04-05T17:19:15.512Z,18.92
2019-04-05T17:21:46.733Z,33.20
2019-04-05T17:24:18.176Z,22.48
2019-04-05T17:26:49.386Z,20.40
2019-04-05T17:29:21.733Z,19.10
2019-04-05T17:31:52.958Z,18.92
2019-04-05T17:34:24.717Z,21.17
2019-04-05T17:36:55.935Z,105.47
2019-04-05T17:39:27.066Z,38.73
2019-04-05T17:41:58.229Z,23.00
2019-04-05T17:44:29.401Z,21.93
2019-04-05T17:47:00.913Z,23.77
2019-04-05T17:49:32.051Z,46.92
2019-04-05T17:52:03.254Z,33.13
2019-04-05T17:54:34.687Z,25.75
2019-04-05T17:57:05.906Z,22.07
2019-04-05T17:59:37.098Z,22.25
2019-04-05T18:02:08.350Z,21.62
2019-04-05T18:04:39.438Z,20.95
2019-04-05T18:07:13.176Z,22.07
2019-04-05T18:09:44.354Z,22.13
2019-04-05T18:12:15.545Z,21.48
2019-04-05T18:14:50.062Z,22.05
2019-04-05T18:17:20.418Z,29.20
2019-04-05T18:19:51.655Z,28.30
2019-04-05T18:22:22.800Z,38.25
2019-04-05T18:24:53.993Z,37.38
2019-04-05T18:27:26.289Z,35.48
2019-04-05T18:29:57.473Z,34.85
2019-04-05T18:32:31.103Z,36.28
2019-04-05T18:35:01.606Z,41.42
2019-04-05T18:37:35.125Z,41.28
2019-04-05T18:40:08.227Z,41.18
2019-04-05T18:42:39.516Z,44.88
2019-04-05T18:45:10.615Z,60.20
2019-04-05T18:47:42.728Z,59.42
2019-04-05T18:50:15.466Z,52.00
2019-04-05T18:52:46.610Z,51.65
2019-04-05T18:55:17.797Z,52.38
2019-04-05T18:57:48.872Z,52.53
2019-04-05T19:00:21.302Z,52.88
2019-04-05T19:02:52.381Z,52.45
2019-04-05T19:05:23.672Z,51.48
2019-04-05T19:07:54.735Z,53.35
2019-04-05T19:10:36.445Z,53.40
2019-04-05T19:12:59.475Z,52.33
2019-04-05T19:15:30.782Z,51.42
2019-04-05T19:18:04.794Z,50.33
2019-04-05T19:20:37.010Z,49.08
2019-04-05T19:23:08.516Z,47.73
2019-04-05T19:25:39.674Z,53.68
2019-04-05T19:28:10.843Z,45.92
2019-04-05T19:48:35.712Z,42.15
2019-04-05T19:51:07.399Z,41.13
2019-04-05T19:53:40.629Z,42.78
2019-04-05T19:56:14.257Z,41.73
2019-04-05T19:58:46.460Z,42.40
2019-04-05T20:01:17.635Z,40.95
2019-04-05T20:03:48.746Z,42.27
2019-04-05T20:06:20.855Z,41.60
2019-04-05T20:08:52.014Z,43.05
2019-04-05T20:11:23.091Z,42.88
2019-04-05T20:13:54.255Z,43.08
2019-04-05T20:16:25.445Z,42.80
2019-04-05T20:18:57.482Z,40.98
2019-04-05T20:21:28.715Z,41.30
2019-04-05T20:24:00.044Z,41.73
2019-04-05T20:26:31.174Z,40.23
2019-04-05T20:29:02.357Z,40.12
2019-04-05T20:31:33.792Z,40.75
2019-04-05T20:34:04.909Z,38.70
2019-04-05T20:36:35.980Z,38.25
2019-04-05T20:39:08.052Z,37.73
2019-04-05T20:41:39.220Z,36.95
2019-04-05T20:44:10.304Z,36.63
2019-04-05T20:46:42.564Z,40.48
2019-04-05T20:49:13.649Z,39.58
2019-04-05T20:51:44.930Z,39.40
2019-04-05T20:54:24.256Z,41.35
2019-04-05T20:56:48.870Z,38.55
2019-04-05T20:59:21.150Z,38.05
2019-04-05T21:01:52.229Z,41.08
2019-04-05T21:04:23.541Z,40.80
2019-04-05T21:06:58.568Z,42.35
2019-04-05T21:09:29.979Z,44.48
2019-04-05T21:12:01.139Z,45.50
2019-04-05T21:14:32.657Z,45.83
2019-04-05T21:17:05.365Z,46.58
2019-04-05T21:19:37.535Z,45.95
2019-04-05T21:22:08.791Z,45.58
2019-04-05T21:24:39.873Z,43.33
2019-04-05T21:27:12.684Z,45.90
2019-04-05T21:29:43.920Z,46.10
2019-04-05T21:32:15.065Z,44.93
2019-04-05T21:34:46.248Z,50.33
2019-04-05T21:37:17.479Z,52.85
2019-04-05T21:39:49.488Z,54.93
2019-04-05T21:42:20.700Z,55.55
2019-04-05T21:44:52.152Z,55.70
2019-04-05T21:47:23.556Z,54.00
2019-04-05T21:49:55.084Z,54.40
2019-04-05T21:52:27.845Z,55.08
2019-04-05T21:54:59.306Z,51.68
2019-04-05T21:57:32.254Z,52.62
2019-04-05T22:00:05.745Z,51.20
2019-04-05T22:02:38.704Z,52.58
2019-04-05T22:05:10.253Z,52.30
2019-04-05T22:07:41.729Z,55.05
2019-04-05T22:10:14.249Z,56.60
2019-04-05T22:12:45.749Z,54.65
2019-04-05T22:15:17.251Z,53.55
2019-04-05T22:17:48.589Z,53.45
2019-04-05T22:20:20.000Z,52.85
2019-04-05T22:22:51.448Z,52.95
2019-04-05T22:25:23.458Z,56.65
2019-04-05T22:28:01.146Z,56.42
2019-04-05T22:30:33.634Z,55.03
2019-04-05T22:33:06.785Z,54.67
2019-04-05T22:35:42.068Z,54.08
2019-04-05T22:38:15.195Z,53.98
2019-04-05T22:41:06.402Z,52.62
2019-04-05T22:43:38.026Z,54.13
2019-04-05T22:46:11.175Z,63.68
2019-04-05T22:48:48.921Z,56.80
2019-04-05T22:51:20.474Z,55.17
2019-04-05T22:53:54.140Z,55.58
2019-04-05T22:56:25.780Z,54.70
2019-04-05T22:58:57.315Z,55.23
2019-04-05T23:01:28.949Z,54.58
2019-04-05T23:04:03.158Z,54.63
2019-04-05T23:06:35.230Z,53.40
2019-04-05T23:09:07.998Z,54.40
2019-04-05T23:11:39.550Z,54.85
2019-04-05T23:14:11.142Z,52.45
2019-04-05T23:16:46.503Z,51.95
2019-04-05T23:19:21.090Z,51.77
2019-04-05T23:21:52.624Z,50.58
2019-04-05T23:24:24.282Z,50.17
2019-04-05T23:26:55.795Z,51.02
2019-04-05T23:29:32.290Z,50.98
2019-04-05T23:32:06.642Z,50.20
2019-04-05T23:34:38.347Z,50.10
2019-04-05T23:37:09.781Z,52.75
2019-04-05T23:39:42.254Z,51.25
2019-04-05T23:42:14.201Z,50.90
2019-04-05T23:44:47.309Z,52.05
2019-04-05T23:47:18.769Z,51.88
2019-04-05T23:49:50.105Z,47.20
2019-04-05T23:52:21.690Z,49.50
2019-04-05T23:54:53.244Z,47.50
2019-04-05T23:57:24.667Z,43.90
2019-04-05T23:59:57.434Z,50.20
